Terminal Aerodrome Forecast
Issued by NWS

Home | Current Version | Previous Version | Text Only | Print | Product List | Glossary On
Versions: 1 2 3 4 5 6 7 8 9 10 11 12 13 14 15 16 17 18 19 20 21 22 23 24 25 26 27 28 29 30 31 32 33 34 35 36 37 38 39 40 41 42 43 44 45 46 47 48 49 50
000
FTUS43 KMKX 300520
TAFENW
TAF
KENW 300520Z 3006/0106 06006KT P6SM BKN022
     FM301100 06008KT P6SM SCT025 BKN035
     FM301400 07013KT P6SM SCT030 OVC035
     FM301800 05014G22KT 5SM RA SCT025 OVC035
     FM302300 04012G20KT 2SM -SHRA BR OVC008
     FM010300 04012G20KT 3SM -SHRA OVC005
     FM010500 04012KT P6SM OVC005=

USA.gov is the U.S. government's official web portal to all federal, state and local government web resources and services.